Time;durP1;ratioP1;P1;durP2;ratioP2;P2;SDS_P1;SDS_P2;PMS_P1;PMS_P2;Temp;Humidity;BMP_temperature;BMP_pressure;BME280_temperature;BME280_humidity;BME280_pressure;Samples;Min_cycle;Max_cycle;Signal;HPM_P1;HPM_P2
2021/07/06 00:00:49;;;;;;;1.50;0.70;;;22.20;99.90;;;;;;4990356;28;20034;-75
2021/07/06 00:03:14;;;;;;;2.95;0.77;;;22.20;99.90;;;;;;4991032;28;20533;-76
2021/07/06 00:05:40;;;;;;;1.85;0.50;;;22.20;99.90;;;;;;4990828;28;20054;-74
2021/07/06 00:08:06;;;;;;;1.95;0.50;;;22.20;99.90;;;;;;4990790;28;20062;-75
2021/07/06 00:10:32;;;;;;;1.63;0.60;;;22.20;99.90;;;;;;4989816;28;20482;-74
2021/07/06 00:12:57;;;;;;;1.48;0.60;;;22.20;99.90;;;;;;4993559;28;20038;-75
2021/07/06 00:15:24;;;;;;;1.75;0.70;;;22.20;99.90;;;;;;4993686;28;20034;-76
2021/07/06 00:17:51;;;;;;;0.82;0.50;;;22.20;99.90;;;;;;4994905;28;20612;-74
2021/07/06 00:20:19;;;;;;;1.13;0.65;;;22.20;99.90;;;;;;4991215;28;20557;-76
2021/07/06 00:22:44;;;;;;;1.70;0.60;;;22.20;99.90;;;;;;4994893;28;20030;-74
2021/07/06 00:25:11;;;;;;;1.42;0.63;;;22.20;99.90;;;;;;4994850;28;20034;-75
2021/07/06 00:27:37;;;;;;;0.88;0.50;;;22.20;99.90;;;;;;4993674;28;20022;-75
2021/07/06 00:30:05;;;;;;;1.80;0.50;;;22.20;99.90;;;;;;4994942;28;20053;-76
2021/07/06 00:32:30;;;;;;;1.95;0.70;;;22.20;99.90;;;;;;4994467;28;20562;-75
2021/07/06 00:34:56;;;;;;;1.85;0.57;;;22.20;99.90;;;;;;4994583;28;20121;-75
2021/07/06 00:37:21;;;;;;;2.55;0.68;;;22.20;99.90;;;;;;4994969;28;20372;-76
2021/07/06 00:39:47;;;;;;;0.88;0.60;;;22.20;99.90;;;;;;4994401;28;20033;-78
2021/07/06 00:42:13;;;;;;;0.80;0.50;;;22.20;99.90;;;;;;4994719;28;20394;-76
2021/07/06 00:44:39;;;;;;;2.38;0.60;;;22.20;99.90;;;;;;4994155;28;20038;-75
2021/07/06 00:47:05;;;;;;;1.38;0.50;;;22.20;99.90;;;;;;4994082;28;20022;-76
2021/07/06 00:49:32;;;;;;;1.92;0.70;;;22.20;99.90;;;;;;4993739;28;20045;-75
2021/07/06 00:51:58;;;;;;;0.95;0.50;;;22.20;99.90;;;;;;4994675;28;20026;-74
2021/07/06 00:54:24;;;;;;;1.02;0.52;;;22.20;99.90;;;;;;4994662;28;20042;-76
2021/07/06 00:56:49;;;;;;;1.73;0.68;;;22.20;99.90;;;;;;4994395;28;20466;-77
2021/07/06 00:59:15;;;;;;;1.75;0.52;;;22.20;99.90;;;;;;4992537;28;20038;-74
2021/07/06 01:01:41;;;;;;;0.47;0.40;;;22.20;99.90;;;;;;4994124;28;20034;-76
2021/07/06 01:04:07;;;;;;;1.40;0.60;;;22.20;99.90;;;;;;4993762;28;20047;-75
2021/07/06 01:06:33;;;;;;;1.40;0.60;;;22.10;99.90;;;;;;4994275;28;20030;-75
2021/07/06 01:08:59;;;;;;;1.15;0.60;;;22.10;99.90;;;;;;4993106;28;20525;-76
2021/07/06 01:11:25;;;;;;;0.95;0.50;;;22.20;99.90;;;;;;4994479;28;20101;-76
2021/07/06 01:13:51;;;;;;;2.65;0.70;;;22.10;99.90;;;;;;4993511;28;20053;-76
2021/07/06 01:16:17;;;;;;;1.52;0.65;;;22.10;99.90;;;;;;4994325;28;20475;-75
2021/07/06 01:18:44;;;;;;;0.93;0.60;;;22.10;99.90;;;;;;4993383;28;20029;-76
2021/07/06 01:21:09;;;;;;;0.45;0.40;;;22.10;99.90;;;;;;4994012;28;20034;-74
2021/07/06 01:23:35;;;;;;;0.73;0.47;;;22.10;99.90;;;;;;4991464;28;20026;-75
2021/07/06 01:26:06;;;;;;;0.40;0.40;;;22.10;99.90;;;;;;4994169;28;20402;-75
2021/07/06 01:28:33;;;;;;;0.70;0.40;;;22.10;99.90;;;;;;4993994;28;20015;-75
2021/07/06 01:30:59;;;;;;;1.08;0.50;;;22.10;99.90;;;;;;4994261;28;20101;-76
2021/07/06 01:33:28;;;;;;;1.25;0.40;;;22.10;99.90;;;;;;4993517;28;20116;-75
2021/07/06 01:35:56;;;;;;;1.23;0.40;;;22.10;99.90;;;;;;4991973;28;20077;-75
2021/07/06 01:38:22;;;;;;;0.50;0.40;;;22.10;99.90;;;;;;4993477;28;20490;-76
2021/07/06 01:40:48;;;;;;;2.22;0.70;;;22.10;99.90;;;;;;4993543;28;20046;-75
2021/07/06 01:43:14;;;;;;;0.70;0.40;;;22.10;99.90;;;;;;4993401;28;20030;-76
2021/07/06 01:45:40;;;;;;;1.58;0.73;;;22.10;99.90;;;;;;4993491;28;20072;-76
2021/07/06 01:48:06;;;;;;;0.47;0.40;;;22.10;99.90;;;;;;4992935;28;20536;-75
2021/07/06 01:50:37;;;;;;;0.63;0.47;;;22.10;99.90;;;;;;4993016;28;20037;-75
2021/07/06 01:53:12;;;;;;;4.07;0.60;;;22.10;99.90;;;;;;4993590;28;20022;-77
2021/07/06 01:55:39;;;;;;;;;;;22.10;99.90;;;;;;4993515;28;20491;-75
2021/07/06 01:58:08;;;;;;;0.90;0.50;;;22.10;99.90;;;;;;5008678;28;19944;-74
2021/07/06 02:00:36;;;;;;;1.95;0.43;;;22.10;99.90;;;;;;4992098;28;20038;-76
2021/07/06 02:03:04;;;;;;;1.13;0.68;;;22.10;99.90;;;;;;4993577;28;20158;-76
2021/07/06 02:05:39;;;;;;;2.45;0.55;;;22.10;99.90;;;;;;4992917;28;20550;-75
2021/07/06 02:08:07;;;;;;;2.63;0.70;;;22.10;99.90;;;;;;4993533;28;20018;-75
2021/07/06 02:10:33;;;;;;;1.50;0.60;;;22.10;99.90;;;;;;4992340;28;20031;-75
2021/07/06 02:13:00;;;;;;;0.60;0.40;;;22.00;99.90;;;;;;4992884;28;20033;-76
2021/07/06 02:15:27;;;;;;;1.42;0.45;;;22.00;99.90;;;;;;4992481;28;20042;-76
2021/07/06 02:17:53;;;;;;;0.50;0.40;;;22.00;99.90;;;;;;4992664;28;20080;-76
2021/07/06 02:20:20;;;;;;;0.50;0.40;;;22.00;99.90;;;;;;4992560;28;20121;-76
2021/07/06 02:22:47;;;;;;;2.63;0.60;;;22.00;99.90;;;;;;4992778;28;20014;-76
2021/07/06 02:25:15;;;;;;;0.85;0.40;;;22.00;99.90;;;;;;4992319;28;20035;-77
2021/07/06 02:27:45;;;;;;;1.17;0.50;;;22.00;99.90;;;;;;4992451;28;20026;-75
2021/07/06 02:30:12;;;;;;;0.85;0.43;;;22.00;99.90;;;;;;4993008;28;20117;-76
2021/07/06 02:32:38;;;;;;;1.27;0.60;;;22.00;99.90;;;;;;4992315;28;20018;-74
2021/07/06 02:35:08;;;;;;;1.15;0.45;;;22.00;99.90;;;;;;4992160;28;20046;-77
2021/07/06 02:37:34;;;;;;;0.85;0.50;;;22.00;99.90;;;;;;4992025;28;20387;-76
2021/07/06 02:40:01;;;;;;;3.40;0.70;;;22.00;99.90;;;;;;4992106;28;20138;-75
2021/07/06 02:42:27;;;;;;;1.88;0.65;;;22.00;99.90;;;;;;4991652;28;20026;-75
2021/07/06 02:44:52;;;;;;;0.93;0.60;;;22.00;99.90;;;;;;4992161;28;20037;-76
2021/07/06 02:47:18;;;;;;;2.30;0.60;;;22.00;99.90;;;;;;4992515;28;20027;-75
2021/07/06 02:49:44;;;;;;;0.80;0.50;;;22.00;99.90;;;;;;4991800;28;20394;-75
2021/07/06 02:52:09;;;;;;;0.52;0.30;;;22.00;99.90;;;;;;4992062;28;20402;-75
2021/07/06 02:54:35;;;;;;;1.65;0.50;;;22.00;99.90;;;;;;4991794;28;20074;-77
2021/07/06 02:57:03;;;;;;;1.33;0.50;;;22.00;99.90;;;;;;4992529;28;20033;-75
2021/07/06 02:59:28;;;;;;;0.65;0.47;;;22.00;99.90;;;;;;4992184;28;20030;-76
2021/07/06 03:01:54;;;;;;;2.80;0.60;;;22.00;99.90;;;;;;4991292;28;20100;-76
2021/07/06 03:04:19;;;;;;;0.52;0.30;;;22.00;99.90;;;;;;5003421;28;20031;-76
2021/07/06 03:06:47;;;;;;;1.23;0.32;;;22.00;99.90;;;;;;4988686;28;20037;-75
2021/07/06 03:09:12;;;;;;;1.30;0.50;;;22.00;99.90;;;;;;4991837;28;20037;-74
2021/07/06 03:11:38;;;;;;;1.27;0.50;;;22.00;99.90;;;;;;4991693;28;20042;-77
2021/07/06 03:14:04;;;;;;;1.05;0.40;;;22.00;99.90;;;;;;4991908;28;20031;-76
2021/07/06 03:16:30;;;;;;;0.60;0.40;;;21.90;99.90;;;;;;4991724;28;20044;-76
2021/07/06 03:18:55;;;;;;;1.73;0.50;;;21.90;99.90;;;;;;4991942;28;20018;-76
2021/07/06 03:21:21;;;;;;;0.98;0.50;;;21.90;99.90;;;;;;4991710;28;20092;-74
2021/07/06 03:23:46;;;;;;;1.52;0.50;;;21.90;99.90;;;;;;4990145;28;20065;-76
2021/07/06 03:26:12;;;;;;;1.63;0.50;;;21.90;99.90;;;;;;4992067;28;20096;-75
2021/07/06 03:28:39;;;;;;;1.77;0.75;;;21.90;99.90;;;;;;4991694;28;20030;-77
2021/07/06 03:31:05;;;;;;;1.13;0.52;;;21.90;99.90;;;;;;4991938;28;20150;-77
2021/07/06 03:33:30;;;;;;;1.15;0.60;;;21.90;99.90;;;;;;4991583;28;20487;-75
2021/07/06 03:35:56;;;;;;;1.50;0.50;;;21.90;99.90;;;;;;4991876;28;20034;-75
2021/07/06 03:38:22;;;;;;;1.13;0.50;;;21.90;99.90;;;;;;4991670;28;20080;-77
2021/07/06 03:40:47;;;;;;;1.63;0.40;;;21.90;99.90;;;;;;4991332;28;20034;-75
2021/07/06 03:43:13;;;;;;;0.90;0.50;;;21.90;99.90;;;;;;4991222;28;20478;-75
2021/07/06 03:45:39;;;;;;;0.80;0.40;;;21.90;99.90;;;;;;4990960;28;20037;-76
2021/07/06 03:48:05;;;;;;;1.95;0.65;;;21.90;99.90;;;;;;4994790;28;20018;-76
2021/07/06 03:50:30;;;;;;;2.58;0.60;;;21.90;99.90;;;;;;4995067;28;20145;-75
2021/07/06 03:52:58;;;;;;;1.30;0.50;;;21.90;99.90;;;;;;4996082;28;20023;-76
2021/07/06 03:55:27;;;;;;;1.52;0.60;;;21.90;99.90;;;;;;4995750;28;20501;-78
2021/07/06 03:57:53;;;;;;;1.73;0.50;;;21.90;99.90;;;;;;4995475;28;20022;-75
2021/07/06 04:00:22;;;;;;;1.60;0.60;;;21.90;99.90;;;;;;4993434;28;20084;-75
2021/07/06 04:02:48;;;;;;;1.02;0.40;;;21.90;99.90;;;;;;4995031;28;20027;-76
2021/07/06 04:05:16;;;;;;;1.25;0.40;;;21.90;99.90;;;;;;4995124;28;20037;-75
2021/07/06 04:07:42;;;;;;;1.20;0.55;;;21.90;99.90;;;;;;5026324;28;20019;-77
2021/07/06 04:10:10;;;;;;;2.40;0.90;;;21.80;99.90;;;;;;4995556;28;20057;-76
2021/07/06 04:12:37;;;;;;;2.08;0.60;;;21.80;99.90;;;;;;4993988;28;20498;-75
2021/07/06 04:15:06;;;;;;;1.48;0.50;;;21.90;99.90;;;;;;4994616;28;20050;-76
2021/07/06 04:17:31;;;;;;;1.65;0.68;;;21.80;99.90;;;;;;4995096;28;20427;-75
2021/07/06 04:19:58;;;;;;;0.93;0.50;;;21.80;99.90;;;;;;4994735;28;20038;-75
2021/07/06 04:22:23;;;;;;;5.10;0.77;;;21.80;99.90;;;;;;4993804;28;20030;-77
2021/07/06 04:24:49;;;;;;;4.85;0.95;;;21.80;99.90;;;;;;4995212;28;20814;-76
2021/07/06 04:27:15;;;;;;;1.75;0.40;;;21.80;99.90;;;;;;4995297;28;20022;-75
2021/07/06 04:29:40;;;;;;;1.08;0.50;;;21.80;99.90;;;;;;4994194;28;20564;-76
2021/07/06 04:32:07;;;;;;;1.42;0.60;;;21.80;99.90;;;;;;4994783;28;20034;-77
2021/07/06 04:34:32;;;;;;;0.93;0.52;;;21.80;99.90;;;;;;4993986;28;20398;-75
2021/07/06 04:36:58;;;;;;;1.30;0.60;;;21.80;99.90;;;;;;4994980;28;20038;-77
2021/07/06 04:39:23;;;;;;;1.83;0.50;;;21.80;99.90;;;;;;4994800;28;20077;-77
2021/07/06 04:41:49;;;;;;;1.02;0.50;;;21.80;99.90;;;;;;4993821;28;20504;-75
2021/07/06 04:44:15;;;;;;;1.02;0.60;;;21.80;99.90;;;;;;4994530;28;20537;-75
2021/07/06 04:46:41;;;;;;;1.30;0.60;;;21.80;99.90;;;;;;4994676;28;20117;-76
2021/07/06 04:49:07;;;;;;;1.77;0.57;;;21.80;99.90;;;;;;4993751;28;20397;-77
2021/07/06 04:51:34;;;;;;;2.20;0.60;;;21.80;99.90;;;;;;4983082;28;20031;-76
2021/07/06 04:54:00;;;;;;;1.30;0.40;;;21.80;99.90;;;;;;4980420;28;20023;-75
2021/07/06 04:56:27;;;;;;;1.42;0.55;;;21.70;99.90;;;;;;4994864;28;20454;-75
2021/07/06 04:58:53;;;;;;;2.47;0.63;;;21.70;99.90;;;;;;4992716;28;20387;-75
2021/07/06 05:01:19;;;;;;;1.15;0.60;;;21.70;99.90;;;;;;4992613;28;20041;-75
2021/07/06 05:03:47;;;;;;;1.17;0.55;;;21.70;99.90;;;;;;5024766;28;20037;-76
2021/07/06 05:06:13;;;;;;;1.83;0.70;;;21.70;99.90;;;;;;4992873;28;20117;-76
2021/07/06 05:08:39;;;;;;;1.27;0.40;;;21.70;99.90;;;;;;4993858;28;20161;-75
2021/07/06 05:11:05;;;;;;;2.33;0.60;;;21.70;99.90;;;;;;4993825;28;20033;-77
2021/07/06 05:13:31;;;;;;;2.03;0.50;;;21.70;99.90;;;;;;5009184;28;20030;-75
2021/07/06 05:15:56;;;;;;;1.27;0.47;;;21.70;99.90;;;;;;4994420;28;20044;-76
2021/07/06 05:18:22;;;;;;;1.92;0.50;;;21.70;99.90;;;;;;4993906;28;20022;-75
2021/07/06 05:20:48;;;;;;;2.20;0.55;;;21.70;99.90;;;;;;4993529;28;20029;-75
2021/07/06 05:23:13;;;;;;;1.00;0.50;;;21.70;99.90;;;;;;4994339;28;20026;-74
2021/07/06 05:25:39;;;;;;;1.58;0.50;;;21.70;99.90;;;;;;4993991;28;20108;-75
2021/07/06 05:28:05;;;;;;;1.02;0.50;;;21.70;99.90;;;;;;4994176;28;20086;-75
2021/07/06 05:30:30;;;;;;;2.75;0.70;;;21.70;99.90;;;;;;4992822;28;20042;-75
2021/07/06 05:32:58;;;;;;;1.63;0.50;;;21.70;99.90;;;;;;4994346;28;20022;-76
2021/07/06 05:35:23;;;;;;;2.13;0.50;;;21.70;99.90;;;;;;4993312;28;20446;-75
2021/07/06 05:37:49;;;;;;;1.38;0.43;;;21.70;99.90;;;;;;4993221;28;20081;-77
2021/07/06 05:40:15;;;;;;;1.40;0.70;;;21.60;99.90;;;;;;4993844;28;20506;-77
2021/07/06 05:42:43;;;;;;;2.05;0.55;;;21.70;99.90;;;;;;4993451;28;20522;-77
2021/07/06 05:45:10;;;;;;;2.97;0.93;;;21.60;99.90;;;;;;4993905;28;20114;-76
2021/07/06 05:47:38;;;;;;;1.58;0.68;;;21.60;99.90;;;;;;4993320;28;20032;-76
2021/07/06 05:50:06;;;;;;;1.83;0.90;;;21.60;99.90;;;;;;4993002;28;20081;-75
2021/07/06 05:52:33;;;;;;;2.55;0.57;;;21.60;99.90;;;;;;4993610;28;20045;-75
2021/07/06 05:54:59;;;;;;;2.97;0.70;;;21.60;99.90;;;;;;4992757;28;20034;-75
2021/07/06 05:57:31;;;;;;;1.60;0.70;;;21.60;99.90;;;;;;4993383;28;20030;-75
2021/07/06 06:00:00;;;;;;;1.42;0.50;;;21.60;99.90;;;;;;4992811;28;20042;-74
2021/07/06 06:02:28;;;;;;;3.65;0.82;;;21.60;99.90;;;;;;4993081;28;20037;-75
2021/07/06 06:04:53;;;;;;;3.35;0.60;;;21.60;99.90;;;;;;4996223;28;20031;-75
2021/07/06 06:07:19;;;;;;;1.83;0.68;;;21.60;99.90;;;;;;4993250;28;20030;-73
2021/07/06 06:09:44;;;;;;;3.65;0.50;;;21.60;99.90;;;;;;4992899;28;20026;-74
2021/07/06 06:12:10;;;;;;;1.65;0.55;;;21.60;99.90;;;;;;4992912;28;20117;-74
2021/07/06 06:14:37;;;;;;;2.53;0.60;;;21.60;99.90;;;;;;4992968;28;20127;-74
2021/07/06 06:17:03;;;;;;;4.80;0.95;;;21.60;99.90;;;;;;4992760;28;20015;-74
2021/07/06 06:19:29;;;;;;;1.48;0.55;;;21.60;99.90;;;;;;4993047;28;20165;-74
2021/07/06 06:21:55;;;;;;;2.60;0.50;;;21.60;99.90;;;;;;4993208;28;20085;-74
2021/07/06 06:24:21;;;;;;;4.10;0.60;;;21.60;99.90;;;;;;4992848;28;20105;-75
2021/07/06 06:26:48;;;;;;;5.72;1.08;;;21.60;99.90;;;;;;4992560;28;20034;-74
2021/07/06 06:29:13;;;;;;;5.68;1.20;;;21.60;99.90;;;;;;4992616;28;20026;-75
2021/07/06 06:31:39;;;;;;;6.50;0.85;;;21.60;99.90;;;;;;4992243;28;20383;-76
2021/07/06 06:34:04;;;;;;;7.40;0.85;;;21.60;99.90;;;;;;4996863;28;20026;-74
2021/07/06 06:36:30;;;;;;;4.47;1.08;;;21.60;99.90;;;;;;4995960;28;20121;-75
2021/07/06 06:38:56;;;;;;;10.60;5.55;;;21.60;98.50;;;;;;4992929;28;20537;-74
2021/07/06 06:41:21;;;;;;;8.07;2.15;;;21.60;99.00;;;;;;4992338;28;20026;-76
2021/07/06 06:43:47;;;;;;;10.43;3.58;;;21.60;98.60;;;;;;4991806;28;20491;-77
2021/07/06 06:46:13;;;;;;;10.75;3.35;;;21.60;99.70;;;;;;4992436;28;20033;-76
2021/07/06 06:48:38;;;;;;;8.38;2.25;;;21.60;99.40;;;;;;5006083;28;20568;-76
2021/07/06 06:51:04;;;;;;;11.52;2.67;;;21.60;99.20;;;;;;4991578;28;20081;-78
2021/07/06 06:53:30;;;;;;;10.63;2.33;;;21.60;99.70;;;;;;4990885;28;20030;-80
2021/07/06 06:55:55;;;;;;;11.13;2.95;;;21.60;99.60;;;;;;4991983;28;20398;-77
2021/07/06 06:58:21;;;;;;;7.10;2.88;;;21.60;99.20;;;;;;4990704;28;20018;-78
2021/07/06 07:00:47;;;;;;;8.98;2.63;;;21.60;99.50;;;;;;4990702;28;20049;-79
2021/07/06 07:03:12;;;;;;;13.43;2.40;;;21.60;99.50;;;;;;4991402;28;20027;-77
2021/07/06 07:05:38;;;;;;;6.20;1.90;;;21.60;99.40;;;;;;4992085;28;20022;-78
2021/07/06 07:08:04;;;;;;;5.57;1.65;;;21.70;99.30;;;;;;4992437;28;20037;-78
2021/07/06 07:10:30;;;;;;;6.93;1.75;;;21.60;99.30;;;;;;4992340;28;20026;-75
2021/07/06 07:12:56;;;;;;;6.90;1.77;;;21.60;99.20;;;;;;4991625;28;20023;-76
2021/07/06 07:15:23;;;;;;;7.20;1.55;;;21.60;99.00;;;;;;4991469;28;20066;-75
2021/07/06 07:17:49;;;;;;;4.97;1.70;;;21.60;98.90;;;;;;4991854;28;20100;-74
2021/07/06 07:20:14;;;;;;;6.70;1.58;;;21.70;98.90;;;;;;4991837;28;20054;-76
2021/07/06 07:22:42;;;;;;;5.80;1.15;;;21.60;98.80;;;;;;4991033;28;20486;-74
2021/07/06 07:25:08;;;;;;;7.43;1.38;;;21.70;98.60;;;;;;4991026;28;20045;-74
2021/07/06 07:27:34;;;;;;;6.32;1.40;;;21.70;98.70;;;;;;4991405;28;20026;-73
2021/07/06 07:29:59;;;;;;;10.50;1.30;;;21.70;98.30;;;;;;4992284;28;20034;-75
2021/07/06 07:32:25;;;;;;;5.40;1.65;;;21.70;98.20;;;;;;4990677;28;20030;-73
2021/07/06 07:34:51;;;;;;;4.40;1.20;;;21.70;98.40;;;;;;4991564;28;20133;-74
2021/07/06 07:37:18;;;;;;;5.15;1.48;;;21.70;98.10;;;;;;4991128;28;20024;-73
2021/07/06 07:39:44;;;;;;;5.07;1.15;;;21.70;98.00;;;;;;4991221;28;20479;-73
2021/07/06 07:42:10;;;;;;;11.02;1.20;;;21.70;97.80;;;;;;4991564;28;20050;-73
2021/07/06 07:44:36;;;;;;;3.10;0.73;;;21.70;97.70;;;;;;4991771;28;20034;-74
2021/07/06 07:47:03;;;;;;;4.90;0.98;;;21.70;97.50;;;;;;4991616;28;20418;-73
2021/07/06 07:49:28;;;;;;;4.78;0.82;;;21.70;97.60;;;;;;4992228;28;20030;-73
2021/07/06 07:51:54;;;;;;;8.50;1.40;;;21.70;97.40;;;;;;4991761;28;20370;-74
2021/07/06 07:54:20;;;;;;;5.10;1.40;;;21.70;97.20;;;;;;4991738;28;20483;-74
2021/07/06 07:56:46;;;;;;;6.57;0.80;;;21.70;97.10;;;;;;4991488;28;20022;-74
2021/07/06 07:59:12;;;;;;;4.45;1.27;;;21.70;97.00;;;;;;4991727;28;20030;-73
2021/07/06 08:01:38;;;;;;;6.82;1.20;;;21.70;97.00;;;;;;4991613;28;20033;-75
2021/07/06 08:04:04;;;;;;;6.13;1.15;;;21.70;96.90;;;;;;4991576;28;20418;-74
2021/07/06 08:06:30;;;;;;;6.38;0.95;;;21.70;96.80;;;;;;4991580;28;20473;-73
2021/07/06 08:08:56;;;;;;;4.32;1.20;;;21.70;96.70;;;;;;4991583;28;20499;-75
2021/07/06 08:11:22;;;;;;;4.70;0.98;;;21.70;96.40;;;;;;4991218;28;20050;-73
2021/07/06 08:13:48;;;;;;;3.63;1.00;;;21.70;96.50;;;;;;4991403;28;20034;-73
2021/07/06 08:16:14;;;;;;;5.88;0.82;;;21.70;96.40;;;;;;4990715;28;20083;-74
2021/07/06 08:18:40;;;;;;;6.45;1.08;;;21.70;96.30;;;;;;4983943;28;20059;-73
2021/07/06 08:21:05;;;;;;;4.43;0.95;;;21.70;96.20;;;;;;4990768;28;20407;-76
2021/07/06 08:23:31;;;;;;;10.48;1.27;;;21.70;96.20;;;;;;4991448;28;20034;-75
2021/07/06 08:25:57;;;;;;;6.85;1.35;;;21.70;96.00;;;;;;4991188;28;20022;-76
2021/07/06 08:28:23;;;;;;;4.60;1.20;;;21.70;96.20;;;;;;4983254;28;20081;-77
2021/07/06 08:30:50;;;;;;;10.63;1.02;;;21.70;96.10;;;;;;4990394;28;20033;-76
2021/07/06 08:33:16;;;;;;;3.67;0.85;;;21.70;96.00;;;;;;4993309;28;20483;-76
2021/07/06 08:35:41;;;;;;;5.80;0.90;;;21.80;96.10;;;;;;4994414;28;20034;-76
2021/07/06 08:38:08;;;;;;;4.90;1.30;;;21.80;95.90;;;;;;4993971;28;20022;-75
2021/07/06 08:40:33;;;;;;;3.58;0.85;;;21.80;95.70;;;;;;4994162;28;20038;-76
2021/07/06 08:43:03;;;;;;;7.88;1.80;;;21.80;95.80;;;;;;4995292;28;20545;-75
2021/07/06 08:45:30;;;;;;;4.57;1.00;;;21.80;95.70;;;;;;4994458;28;20469;-76
2021/07/06 08:47:56;;;;;;;4.65;0.75;;;21.80;95.60;;;;;;4994221;28;20077;-76
2021/07/06 08:50:23;;;;;;;4.40;1.05;;;21.80;95.60;;;;;;4994701;28;20097;-74
2021/07/06 08:52:48;;;;;;;7.22;1.27;;;21.80;95.40;;;;;;4994189;28;20029;-76
2021/07/06 08:55:16;;;;;;;4.43;0.90;;;21.80;95.60;;;;;;4993565;28;20038;-75
2021/07/06 08:57:43;;;;;;;5.93;1.10;;;21.80;95.40;;;;;;4993936;28;20030;-77
2021/07/06 09:00:11;;;;;;;5.07;1.20;;;21.80;95.40;;;;;;4994679;28;20045;-76
2021/07/06 09:02:37;;;;;;;6.18;1.35;;;21.80;95.20;;;;;;4994181;28;20137;-76
2021/07/06 09:05:03;;;;;;;5.03;0.98;;;21.80;95.30;;;;;;4996832;28;20526;-76
2021/07/06 09:07:41;;;;;;;3.75;0.80;;;21.80;95.20;;;;;;4993851;28;20499;-76
2021/07/06 09:10:21;;;;;;;8.10;1.27;;;21.80;95.00;;;;;;5009106;28;20030;-75
2021/07/06 09:12:47;;;;;;;5.32;0.82;;;21.80;94.90;;;;;;4991245;28;20033;-75
2021/07/06 09:15:28;;;;;;;5.25;0.88;;;21.80;94.90;;;;;;4992804;28;20030;-76
2021/07/06 09:18:09;;;;;;;4.82;1.13;;;21.80;94.90;;;;;;4993174;28;20030;-75
2021/07/06 09:20:36;;;;;;;4.50;0.80;;;21.80;94.90;;;;;;4993089;28;20031;-76
2021/07/06 09:23:27;;;;;;;4.15;0.80;;;21.80;94.80;;;;;;4993280;28;20112;-75
2021/07/06 09:26:10;;;;;;;4.80;0.98;;;21.80;94.80;;;;;;4993096;28;20030;-76
2021/07/06 09:28:38;;;;;;;4.68;0.90;;;21.80;94.60;;;;;;4993184;28;20074;-75
2021/07/06 09:31:17;;;;;;;3.97;1.10;;;21.80;94.60;;;;;;5008974;28;20026;-74
2021/07/06 09:33:58;;;;;;;6.65;1.33;;;21.80;94.50;;;;;;4993542;28;20026;-77
2021/07/06 09:36:45;;;;;;;6.05;1.23;;;21.80;94.50;;;;;;4994066;28;20033;-76
2021/07/06 09:39:17;;;;;;;6.28;1.13;;;21.80;94.40;;;;;;5008209;28;20034;-74
2021/07/06 09:41:53;;;;;;;6.00;1.08;;;21.80;94.40;;;;;;4993441;28;20096;-75
2021/07/06 09:44:29;;;;;;;4.32;0.80;;;21.90;94.30;;;;;;4992988;28;20030;-76
2021/07/06 09:47:07;;;;;;;4.18;1.45;;;21.80;94.30;;;;;;4993103;28;20113;-75
2021/07/06 09:49:40;;;;;;;5.10;0.90;;;21.80;94.20;;;;;;4993081;28;20022;-75
2021/07/06 09:52:23;;;;;;;2.40;0.90;;;21.90;94.20;;;;;;4992356;28;20084;-76
2021/07/06 09:54:54;;;;;;;3.50;0.80;;;21.90;94.30;;;;;;4973004;28;20043;-76
2021/07/06 10:00:07;;;;;;;5.57;1.40;;;21.80;94.10;;;;;;4989626;28;20038;-75
2021/07/06 10:02:33;;;;;;;6.63;1.15;;;21.90;94.20;;;;;;4991485;28;20030;-74
2021/07/06 10:05:03;;;;;;;2.75;0.77;;;21.80;94.20;;;;;;4993111;28;20446;-76
2021/07/06 10:07:28;;;;;;;5.10;1.08;;;21.90;94.10;;;;;;4993139;28;20022;-75
2021/07/06 10:09:54;;;;;;;6.05;1.00;;;21.90;94.10;;;;;;4991901;28;20041;-80
2021/07/06 10:12:22;;;;;;;7.28;0.85;;;21.90;94.10;;;;;;4992343;28;20084;-78
2021/07/06 10:14:48;;;;;;;5.68;1.02;;;21.90;94.00;;;;;;4991135;28;20561;-78
2021/07/06 10:17:15;;;;;;;3.13;0.80;;;21.90;94.00;;;;;;4992467;28;20029;-78
2021/07/06 10:19:43;;;;;;;4.47;0.95;;;21.90;93.90;;;;;;4992673;28;20204;-79
2021/07/06 10:22:09;;;;;;;5.70;0.95;;;21.90;93.70;;;;;;4992477;28;20386;-78
2021/07/06 10:24:44;;;;;;;6.05;1.30;;;21.90;93.60;;;;;;4992593;28;20034;-78
2021/07/06 10:27:23;;;;;;;6.63;1.33;;;21.90;93.60;;;;;;4993384;28;20448;-79
2021/07/06 10:30:09;;;;;;;4.88;0.80;;;22.00;93.50;;;;;;4993655;28;20023;-78
2021/07/06 10:32:38;;;;;;;;;;;21.90;93.40;;;;;;4993788;28;20026;-78
2021/07/06 10:35:08;;;;;;;4.53;0.85;;;21.90;93.40;;;;;;4992929;28;20345;-77
2021/07/06 10:37:34;;;;;;;3.83;0.80;;;21.90;93.20;;;;;;4992324;28;20390;-77
2021/07/06 10:40:23;;;;;;;6.07;0.75;;;22.00;93.30;;;;;;4993250;28;20030;-77
2021/07/06 10:42:52;;;;;;;2.88;0.88;;;22.00;93.30;;;;;;4992701;28;20425;-75
2021/07/06 10:45:36;;;;;;;3.20;0.82;;;22.00;93.10;;;;;;4992708;28;20030;-76
2021/07/06 10:48:01;;;;;;;4.13;0.73;;;22.00;93.20;;;;;;4993060;28;20041;-77
2021/07/06 10:50:30;;;;;;;5.15;0.98;;;22.00;93.10;;;;;;4993326;28;20494;-76
2021/07/06 10:53:15;;;;;;;4.63;0.80;;;22.00;93.00;;;;;;5008064;28;20049;-76
2021/07/06 10:55:43;;;;;;;2.70;0.63;;;22.00;92.80;;;;;;4992587;28;20037;-75
2021/07/06 10:58:10;;;;;;;3.05;0.80;;;22.00;93.00;;;;;;4992303;28;20517;-77
2021/07/06 11:00:43;;;;;;;4.07;0.80;;;22.00;92.90;;;;;;4991416;28;20030;-78
2021/07/06 11:03:18;;;;;;;3.63;0.60;;;22.00;92.80;;;;;;4992998;28;20453;-77
2021/07/06 11:05:45;;;;;;;2.60;0.65;;;22.00;92.70;;;;;;4992396;28;20399;-77
2021/07/06 11:08:43;;;;;;;5.47;1.15;;;22.00;92.80;;;;;;4992696;28;20035;-77
2021/07/06 11:11:09;;;;;;;5.25;1.17;;;22.00;92.60;;;;;;4969461;28;20419;-77
2021/07/06 11:13:34;;;;;;;4.90;0.70;;;22.00;92.60;;;;;;4991816;28;20031;-78
2021/07/06 11:16:03;;;;;;;4.57;0.70;;;22.00;92.70;;;;;;4992211;28;20401;-78
2021/07/06 11:18:34;;;;;;;3.35;0.90;;;21.90;92.60;;;;;;4994376;28;20022;-77
2021/07/06 11:21:00;;;;;;;4.43;0.88;;;21.90;92.80;;;;;;4996591;28;20019;-77
2021/07/06 11:23:31;;;;;;;8.57;0.90;;;21.90;92.40;;;;;;4992159;28;20038;-78
2021/07/06 11:26:05;;;;;;;4.32;0.95;;;21.90;92.30;;;;;;4991429;28;20081;-80
2021/07/06 11:28:46;;;;;;;4.25;1.10;;;21.90;92.20;;;;;;4989547;28;20037;-78
2021/07/06 11:31:18;;;;;;;6.57;1.05;;;21.90;92.20;;;;;;4982534;28;20023;-83
2021/07/06 11:33:44;;;;;;;9.80;0.85;;;21.90;91.70;;;;;;4990680;28;20034;-78
2021/07/06 11:36:22;;;;;;;7.95;0.95;;;21.80;91.10;;;;;;4991369;28;20636;-81
2021/07/06 11:38:50;;;;;;;5.50;0.70;;;21.70;89.70;;;;;;4998560;28;20097;-78
2021/07/06 11:41:19;;;;;;;8.48;1.10;;;21.60;89.80;;;;;;5011356;28;20029;-78
2021/07/06 11:43:45;;;;;;;6.43;0.88;;;21.60;89.40;;;;;;4993983;28;20058;-78
2021/07/06 11:46:16;;;;;;;9.77;1.33;;;21.50;89.10;;;;;;4991920;28;20033;-80
2021/07/06 11:48:43;;;;;;;9.07;1.20;;;21.50;89.60;;;;;;4992181;28;20031;-79
2021/07/06 11:51:14;;;;;;;6.47;1.13;;;21.60;89.90;;;;;;4991922;28;20023;-78
2021/07/06 11:54:01;;;;;;;5.28;1.00;;;21.60;90.10;;;;;;4981462;28;20099;-79
2021/07/06 11:56:29;;;;;;;8.73;1.17;;;21.60;90.40;;;;;;4970795;28;20456;-82
2021/07/06 11:58:55;;;;;;;7.85;1.63;;;21.70;90.60;;;;;;4991678;28;20057;-79
2021/07/06 12:01:22;;;;;;;10.82;1.15;;;21.70;90.20;;;;;;4990875;28;20042;-78
2021/07/06 12:03:49;;;;;;;11.05;1.55;;;21.70;90.20;;;;;;4990244;28;20046;-79
2021/07/06 12:06:15;;;;;;;6.28;0.98;;;21.70;90.40;;;;;;4991885;28;20073;-76
2021/07/06 12:08:48;;;;;;;10.38;1.35;;;21.70;90.60;;;;;;4994311;28;20037;-79
2021/07/06 12:11:20;;;;;;;6.57;1.48;;;21.70;90.60;;;;;;4995774;28;20110;-81
2021/07/06 12:13:48;;;;;;;6.03;1.40;;;21.70;90.60;;;;;;4995226;28;20035;-77
2021/07/06 12:16:15;;;;;;;15.73;1.25;;;21.70;90.60;;;;;;5009872;28;20058;-80
2021/07/06 12:18:56;;;;;;;7.25;0.93;;;21.70;90.70;;;;;;4995514;28;20041;-84
2021/07/06 12:21:43;;;;;;;5.43;1.27;;;21.70;90.60;;;;;;4995280;28;20023;-84
2021/07/06 12:24:13;;;;;;;12.45;1.20;;;21.70;90.90;;;;;;4995287;28;20069;-87
2021/07/06 12:26:48;;;;;;;8.70;1.23;;;21.70;90.90;;;;;;4995444;28;20022;-82
2021/07/06 12:29:24;;;;;;;7.97;0.90;;;21.80;91.00;;;;;;4995608;28;20034;-85
2021/07/06 12:31:50;;;;;;;8.27;1.02;;;21.80;91.30;;;;;;4994419;28;20030;-85
2021/07/06 12:34:17;;;;;;;12.38;1.20;;;21.80;91.70;;;;;;4995243;28;20054;-82
2021/07/06 12:36:58;;;;;;;9.38;1.17;;;21.80;91.80;;;;;;4994921;28;20450;-86
2021/07/06 12:39:34;;;;;;;8.00;1.10;;;21.80;92.00;;;;;;4993423;28;20118;-80
2021/07/06 12:42:12;;;;;;;7.03;0.93;;;21.90;92.20;;;;;;4993710;28;20509;-81
2021/07/06 12:44:42;;;;;;;6.40;1.30;;;21.90;92.30;;;;;;4993180;28;20031;-80
2021/07/06 12:47:27;;;;;;;6.50;1.52;;;21.90;92.40;;;;;;4994327;28;20014;-79
2021/07/06 12:49:55;;;;;;;5.72;0.95;;;22.00;92.40;;;;;;4994629;28;20069;-79
2021/07/06 12:52:23;;;;;;;7.20;0.80;;;22.00;92.50;;;;;;4994747;28;20117;-78
2021/07/06 12:54:50;;;;;;;4.88;0.90;;;22.00;92.50;;;;;;4994024;28;20520;-79